Keilor, Australia
Current Conditions -  °F | °C
As of 7:00 AM on Friday 24 Oct 2014 (Local Time) from YMML Reporting Station
Haze Haze  
Wind Chill: 55°   Ceiling: 200
Heat Index: 55°   Visibility: 1.8mi
Dew Point: 55°   Wind: 6mph
Humidity: 100%   Direction: 50°NE
Pressure: 29.88"   Gusts: NA
Location:  37.72°S, 144.83°E
Report Text: YMML 232000Z 05005KT 3000 BR OVC002 13/13 Q1012 FM2030 36007KT 7000 HZ BKN003 FM2130 36010KT CAVOK
Loading
Personal Weather Stations






























Interactive Weather Map
Tropical Storm Tracking
New forecast layout! Learn more

10-Day Weather Forecast

Advertisements
Track Severe Weather on mobile